Архив погоды в Акбулаке

Метеограмма Акбулак
Суббота, 24 Июня
Время местн. Темп Ветер Видим Явления Облачность нижн/средн/верх Атм. давл. Влжн Точка росы ВНГО R Сост. почвы Tg s
Напр Скр Прв ур.ст ур.м изм
20:00 +24.5° Ю 4 - 20 км - преимущественно облачно 742 755 -1.1 33% +7.3° 600 м 0 - - -
17:00 +26.2° Ю,Ю-З 4 - 20 км - облачно 743 756 -1.4 28% +6.4° 1 км - - - -
14:00 +26.1° Ю,Ю-З 2 - 20 км - переменная облачность 745 757 -1.1 29% +6.5° 1 км - - - -
11:00 +22.4° З,Ю-З 2 - 20 км - преимущественно облачно 746 758 0 34% +5.7° более 2.5 км - - - -
08:00 +15.1° Ю,Ю-З 1 - 20 км - ясно 746 759 +0.5 66% +8.8° более 2.5 км 0 Сухая (без трещин) - -
05:00 +8.5° штиль 0 - 20 км - ясно 745 759 0 89% +6.8° более 2.5 км - - - -
02:00 +11.2° штиль 0 - 20 км - ясно 745 758 +0.8 81% +8.1° более 2.5 км - - - -
Пятница, 23 Июня
Время местн. Темп Ветер Видим Явления Облачность нижн/средн/верх Атм. давл. Влжн Точка росы ВНГО R Сост. почвы Tg s
Напр Скр Прв ур.ст ур.м изм
23:00 +17.3° С 2 - 20 км - ясно 744 757 +1.1 51% +7.1° более 2.5 км - - - -
20:00 +23.4° С,С-З 4 - 20 км - переменная облачность 743 756 +0.3 32% +5.7° более 2.5 км 0 - - -
17:00 +25.5° З,С-З 4 - 20 км - облачно с прояснениями 743 755 +0.1 30% +6.9° 1 км - - - -
14:00 +25.5° С-З 3 - 20 км - преимущественно облачно 743 756 +0.6 34% +8.5° 1 км - - - -
11:00 +23.6° С-З 2 - 20 км - преимущественно облачно 743 755 +0.4 45% +11° - - - - -
08:00 +17.7° С 2 - 20 км - облачно с прояснениями 742 755 +0.8 89% +15.9° 1 км 0.6 Влажная (без луж) - -
05:00 +17.6° С 2 - 20 км ливневый дождь облачно 741 754 +0.8 92% +16.3° 1 км - - - -
02:00 +20.9° С,С-В 3 - 20 км - облачно 741 753 +0.4 71% +15.5° - - - - -
Четверг, 22 Июня
Время местн. Темп Ветер Видим Явления Облачность нижн/средн/верх Атм. давл. Влжн Точка росы ВНГО R Сост. почвы Tg s
Напр Скр Прв ур.ст ур.м изм
23:00 +22.7° Ю-З 1 - 20 км - облачно с прояснениями 740 753 +1.1 53% +12.6° 1 км - - - -
20:00 +30.1° Ю-З 1 - 20 км - переменная облачность 739 751 -0.4 25% +8.2° более 2.5 км 0 - - -
17:00 +31.2° Ю,Ю-З 2 - 20 км - переменная облачность 740 752 -1.2 23% +7.4° более 2.5 км - - - -
14:00 +29.4° Ю 3 - 20 км - переменная облачность 741 753 -0.5 24% +6.8° более 2.5 км - - - -
11:00 +27.3° Ю-В 3 - 20 км - ясно 741 754 -0.8 32% +9° более 2.5 км - - - -
08:00 +17.6° Ю-В 3 - 20 км - ясно 742 755 +0.1 59% +9.5° более 2.5 км 0 Сухая (без трещин) - -
05:00 +12.8° В,Ю-В 1 - 20 км - ясно 742 755 +0.1 72% +7.9° более 2.5 км - - - -
02:00 +13.9° В,Ю-В 1 - 20 км - ясно 742 755 +0.1 71% +8.8° более 2.5 км - - - -
Среда, 21 Июня
Время местн. Темп Ветер Видим Явления Облачность нижн/средн/верх Атм. давл. Влжн Точка росы ВНГО R Сост. почвы Tg s
Напр Скр Прв ур.ст ур.м изм
23:00 +16.6° С,С-В 1 - 20 км - ясно 742 754 0 63% +9.6° более 2.5 км - - - -
20:00 +25.2° З,С-З 1 - 20 км - ясно 742 754 -0.3 32% +7.5° более 2.5 км 0 - - -
17:00 +25.4° З 3 - 20 км - переменная облачность 742 754 -0.5 32% +7.5° 1 км - - - -